Time;durP1;ratioP1;P1;durP2;ratioP2;P2;SDS_P1;SDS_P2;PMS_P1;PMS_P2;Temp;Humidity;BMP_temperature;BMP_pressure;BME280_temperature;BME280_humidity;BME280_pressure;Samples;Min_cycle;Max_cycle;Signal;HPM_P1;HPM_P2
2022/07/10 00:01:54;;;;;;;2.75;2.50;;;;;;;25.72;36.10;101452.69;4999904;28;20065;-82
2022/07/10 00:04:26;;;;;;;4.00;2.38;;;;;;;25.57;36.01;101422.22;4997192;28;20418;-82
2022/07/10 00:06:52;;;;;;;4.70;2.45;;;;;;;25.72;36.28;101452.69;4996813;28;20050;-81
2022/07/10 00:09:20;;;;;;;2.92;2.00;;;;;;;25.62;36.27;101441.44;5012998;28;20070;-79
2022/07/10 00:11:46;;;;;;;6.38;2.20;;;;;;;25.62;35.99;101425.13;4996533;28;20104;-81
2022/07/10 00:14:14;;;;;;;6.43;2.53;;;;;;;25.47;35.75;101405.56;4996241;28;20533;-82
2022/07/10 00:16:45;;;;;;;4.78;2.30;;;;;;;25.48;36.15;101423.50;5012352;28;20062;-82
2022/07/10 00:19:12;;;;;;;3.00;2.25;;;;;;;25.28;35.97;101386.38;4996120;28;20049;-82
2022/07/10 00:21:39;;;;;;;2.83;2.10;;;;;;;25.27;36.15;101390.16;5012801;28;20086;-82
2022/07/10 00:24:06;;;;;;;3.28;2.40;;;;;;;25.66;36.00;101463.63;4996405;28;20046;-82
2022/07/10 00:26:32;;;;;;;3.80;2.67;;;;;;;25.53;36.55;101448.16;4996191;28;20543;-79
2022/07/10 00:28:59;;;;;;;3.88;2.60;;;;;;;25.35;36.86;101455.13;5013487;28;20100;-82
2022/07/10 00:31:26;;;;;;;4.55;2.20;;;;;;;25.28;37.18;101457.03;4995572;28;20046;-81
2022/07/10 00:33:52;;;;;;;2.40;2.20;;;;;;;25.27;37.31;101457.22;4996079;28;20137;-81
2022/07/10 00:36:19;;;;;;;3.00;1.80;;;;;;;24.87;37.39;101394.81;4995940;28;20049;-81
2022/07/10 00:38:48;;;;;;;3.08;2.15;;;;;;;24.83;37.19;101399.88;4994127;28;20054;-82
2022/07/10 00:41:15;;;;;;;3.70;2.53;;;;;;;24.64;37.37;101379.00;4976147;28;20479;-82
2022/07/10 00:43:58;;;;;;;3.33;2.42;;;;;;;24.91;37.34;101423.25;4976473;28;20069;-81
2022/07/10 00:46:26;;;;;;;2.33;2.13;;;;;;;24.89;36.99;101412.56;4975765;28;20042;-82
2022/07/10 00:48:54;;;;;;;2.70;2.35;;;;;;;25.03;37.09;101426.16;4992003;28;20046;-82
2022/07/10 00:51:24;;;;;;;2.45;2.20;;;;;;;24.67;37.91;101373.97;4992573;28;20046;-82
2022/07/10 00:53:52;;;;;;;7.45;2.33;;;;;;;25.03;37.81;101431.59;4988075;28;20096;-82
2022/07/10 00:56:22;;;;;;;2.60;2.25;;;;;;;24.92;38.04;101406.72;4995879;28;20054;-83
2022/07/10 00:58:49;;;;;;;4.25;2.45;;;;;;;24.87;37.94;101409.25;4996189;28;20045;-82
2022/07/10 01:01:17;;;;;;;4.18;2.40;;;;;;;24.77;37.98;101395.25;4995053;28;20054;-82
2022/07/10 01:03:47;;;;;;;3.30;2.13;;;;;;;24.20;37.88;101305.31;5012706;28;20489;-81
2022/07/10 01:06:15;;;;;;;5.37;2.77;;;;;;;24.86;38.18;101421.16;4995200;28;20050;-82
2022/07/10 01:08:42;;;;;;;5.20;3.15;;;;;;;24.57;38.25;101372.75;4995330;28;20968;-82
2022/07/10 01:11:13;;;;;;;2.65;2.45;;;;;;;23.71;38.26;101224.34;4994916;28;20061;-83
2022/07/10 01:13:40;;;;;;;3.65;2.60;;;;;;;24.88;38.03;101413.63;4995020;28;20061;-82
2022/07/10 01:16:06;;;;;;;3.50;2.50;;;;;;;24.81;38.06;101410.09;4995094;28;20049;-83
2022/07/10 01:18:33;;;;;;;2.60;2.40;;;;;;;24.64;38.22;101379.00;4995105;28;20252;-82
2022/07/10 01:21:00;;;;;;;4.22;2.65;;;;;;;24.87;38.03;101411.94;4995198;28;20061;-83
2022/07/10 01:23:27;;;;;;;4.68;2.92;;;;;;;24.89;38.14;101399.00;4994658;28;20100;-81
2022/07/10 01:25:54;;;;;;;4.57;2.60;;;;;;;24.75;38.03;101391.91;4995064;28;20085;-82
2022/07/10 01:28:21;;;;;;;3.55;2.20;;;;;;;24.62;38.20;101362.91;4994332;28;20049;-82
2022/07/10 01:30:49;;;;;;;3.30;2.17;;;;;;;24.74;38.22;101376.69;4994654;28;20135;-81
2022/07/10 01:33:17;;;;;;;2.88;2.10;;;;;;;24.87;37.98;101368.50;4994444;28;20421;-81
2022/07/10 01:35:44;;;;;;;2.72;2.05;;;;;;;24.39;38.18;101298.19;4993620;28;20536;-81
2022/07/10 01:38:11;;;;;;;2.67;2.20;;;;;;;24.86;38.22;101388.56;4994590;28;20049;-82
2022/07/10 01:40:38;;;;;;;3.17;2.28;;;;;;;24.18;38.32;101280.28;4974558;28;20059;-83
2022/07/10 01:43:05;;;;;;;5.00;2.85;;;;;;;24.85;38.19;101391.50;4954847;28;20126;-83
2022/07/10 01:45:34;;;;;;;6.65;2.28;;;;;;;24.43;37.49;101299.44;4972383;28;20134;-82
2022/07/10 01:48:01;;;;;;;2.65;2.10;;;;;;;24.45;37.42;101310.94;4955391;28;20065;-81
2022/07/10 01:50:27;;;;;;;4.53;2.20;;;;;;;24.69;37.83;101365.63;4955076;28;20058;-80
2022/07/10 01:52:54;;;;;;;2.55;1.85;;;;;;;24.55;38.06;101364.81;4964093;28;20785;-82
2022/07/10 01:55:21;;;;;;;3.85;2.03;;;;;;;24.40;38.11;101358.75;4994042;28;20120;-82
2022/07/10 01:57:47;;;;;;;2.67;2.28;;;;;;;24.26;38.22;101338.91;4994621;28;20096;-82
2022/07/10 02:00:14;;;;;;;6.60;2.60;;;;;;;24.47;38.52;101387.56;4993947;28;20061;-82
2022/07/10 02:04:40;;;;;;;2.53;2.20;;;;;;;23.39;38.24;101203.28;4989731;28;20053;-82
2022/07/10 02:05:27;;;;;;;3.90;2.33;;;;;;;24.27;38.11;101348.72;5007395;28;20173;-81
2022/07/10 02:07:54;;;;;;;5.13;2.58;;;;;;;24.45;37.65;101376.06;4990208;28;20249;-82
2022/07/10 02:10:21;;;;;;;5.45;2.50;;;;;;;24.12;37.90;101334.53;4990760;28;20054;-82
2022/07/10 02:12:47;;;;;;;3.47;2.30;;;;;;;24.37;37.78;101370.00;4990065;28;20046;-80
2022/07/10 02:15:14;;;;;;;2.50;2.13;;;;;;;23.39;37.72;101207.84;4989483;28;20057;-82
2022/07/10 02:17:41;;;;;;;2.67;2.13;;;;;;;24.01;38.06;101309.69;4989444;28;20042;-82
2022/07/10 02:20:10;;;;;;;2.22;1.92;;;;;;;23.65;38.89;101258.56;4989603;28;20476;-81
2022/07/10 02:22:37;;;;;;;3.97;2.15;;;;;;;24.01;38.72;101319.72;5005638;28;20515;-81
2022/07/10 02:25:04;;;;;;;2.83;2.00;;;;;;;24.25;38.88;101377.94;4989439;28;20045;-81
2022/07/10 02:27:33;;;;;;;2.88;2.08;;;;;;;23.59;38.88;101281.91;4989809;28;20088;-82
2022/07/10 02:29:59;;;;;;;2.47;2.03;;;;;;;23.91;39.13;101330.97;4989186;28;20517;-82
2022/07/10 02:32:26;;;;;;;3.05;2.20;;;;;;;24.18;39.43;101368.97;5005803;28;20061;-81
2022/07/10 02:34:53;;;;;;;2.33;2.13;;;;;;;24.08;39.43;101364.78;5006563;28;20100;-82
2022/07/10 02:37:20;;;;;;;2.25;2.13;;;;;;;23.99;39.22;101357.88;5006829;28;20104;-81
2022/07/10 02:39:46;;;;;;;2.50;2.30;;;;;;;24.10;39.22;101381.69;4975684;28;20489;-81
2022/07/10 02:42:13;;;;;;;2.40;2.20;;;;;;;23.87;39.29;101340.56;4950668;28;20451;-81
2022/07/10 02:44:43;;;;;;;3.78;2.50;;;;;;;23.87;39.56;101341.38;4968194;28;20051;-80
2022/07/10 02:47:12;;;;;;;2.20;1.95;;;;;;;24.02;39.30;101360.16;4951530;28;20054;-82
2022/07/10 02:49:39;;;;;;;2.38;2.17;;;;;;;23.71;39.78;101320.06;4967925;28;20054;-82
2022/07/10 02:52:06;;;;;;;8.65;2.50;;;;;;;23.86;39.72;101334.31;4950352;28;20090;-82
2022/07/10 02:54:33;;;;;;;2.42;2.22;;;;;;;24.10;39.52;101367.28;4985543;28;20172;-81
2022/07/10 02:57:02;;;;;;;4.45;2.47;;;;;;;23.81;39.70;101336.81;4988916;28;20061;-81
2022/07/10 02:59:29;;;;;;;2.25;2.05;;;;;;;23.92;39.51;101359.75;4989255;28;20128;-81
2022/07/10 03:01:56;;;;;;;3.38;2.10;;;;;;;23.92;39.40;101357.03;5004816;28;20062;-82
2022/07/10 03:04:23;;;;;;;3.83;2.08;;;;;;;23.65;39.37;101327.13;5006308;28;20504;-82
2022/07/10 03:06:52;;;;;;;2.67;2.00;;;;;;;23.91;39.23;101363.50;4988782;28;20061;-81
2022/07/10 03:09:19;;;;;;;3.30;2.40;;;;;;;23.47;39.15;101302.47;4988925;28;20042;-82
2022/07/10 03:11:45;;;;;;;6.78;2.45;;;;;;;23.86;39.32;101358.72;4989308;28;20054;-82
2022/07/10 03:14:12;;;;;;;1.90;1.70;;;;;;;23.58;39.40;101326.28;4988609;28;20054;-81
2022/07/10 03:16:39;;;;;;;2.42;2.00;;;;;;;23.78;39.17;101358.06;4988929;28;20114;-82
2022/07/10 03:19:05;;;;;;;5.22;2.13;;;;;;;23.68;39.25;101351.13;4988723;28;20532;-81
2022/07/10 03:21:32;;;;;;;3.30;2.00;;;;;;;23.56;38.72;101339.19;5006166;28;20057;-81
2022/07/10 03:23:59;;;;;;;2.20;2.00;;;;;;;23.42;39.50;101315.81;5005924;28;20049;-82
2022/07/10 03:26:26;;;;;;;4.07;2.10;;;;;;;23.37;39.13;101307.47;4989003;28;20502;-82
2022/07/10 03:28:53;;;;;;;2.05;1.92;;;;;;;23.65;39.07;101354.25;4988203;28;20049;-81
2022/07/10 03:31:22;;;;;;;2.38;2.10;;;;;;;23.72;38.97;101364.28;5004982;28;20566;-82
2022/07/10 03:33:49;;;;;;;3.47;2.05;;;;;;;23.74;38.99;101356.78;4988569;28;20414;-81
2022/07/10 03:36:17;;;;;;;3.42;2.10;;;;;;;23.76;38.89;101354.72;5004655;28;20445;-81
2022/07/10 03:38:45;;;;;;;2.00;1.90;;;;;;;23.74;39.10;101356.78;5004574;28;20536;-81
2022/07/10 03:41:13;;;;;;;2.45;2.10;;;;;;;23.55;39.35;101325.88;4969223;28;20050;-82
2022/07/10 03:43:40;;;;;;;3.85;1.98;;;;;;;23.53;39.25;101320.66;4969140;28;20383;-81
2022/07/10 03:46:07;;;;;;;2.33;2.10;;;;;;;23.56;39.20;101322.94;4969384;28;20046;-81
2022/07/10 03:48:33;;;;;;;5.55;2.42;;;;;;;23.53;39.19;101323.34;4986274;28;20065;-81
2022/07/10 03:51:01;;;;;;;2.70;1.80;;;;;;;23.65;39.22;101329.84;4969204;28;20129;-82
2022/07/10 03:53:28;;;;;;;5.10;1.90;;;;;;;23.26;39.64;101262.84;4978001;28;20116;-82
2022/07/10 03:55:54;;;;;;;2.17;1.83;;;;;;;23.68;39.83;101325.88;4988586;28;20061;-81
2022/07/10 03:58:21;;;;;;;2.97;1.95;;;;;;;23.57;39.42;101302.09;4988242;28;20107;-82
2022/07/10 04:00:47;;;;;;;2.53;2.00;;;;;;;23.71;39.40;101330.06;4988502;28;20496;-82
2022/07/10 04:03:14;;;;;;;1.95;1.75;;;;;;;23.68;39.42;101326.72;4988348;28;20445;-82
2022/07/10 04:05:41;;;;;;;4.53;1.83;;;;;;;23.64;39.57;101314.63;4988598;28;20054;-83
2022/07/10 04:08:08;;;;;;;2.10;1.90;;;;;;;23.39;39.83;101278.31;4991696;28;20053;-81
2022/07/10 04:10:36;;;;;;;5.22;2.20;;;;;;;23.60;39.98;101318.78;4993276;28;20057;-81
2022/07/10 04:13:02;;;;;;;5.03;2.33;;;;;;;22.86;39.49;101186.03;4992282;28;20050;-81
2022/07/10 04:15:29;;;;;;;4.25;1.95;;;;;;;23.48;39.86;101289.78;5009956;28;20050;-81
2022/07/10 04:17:56;;;;;;;6.10;2.13;;;;;;;23.27;40.23;101255.56;4992774;28;20057;-81
2022/07/10 04:20:23;;;;;;;2.60;2.05;;;;;;;23.41;40.54;101273.50;4995616;28;20436;-82
2022/07/10 04:22:50;;;;;;;6.38;2.25;;;;;;;23.23;40.86;101253.25;5019772;28;20106;-83
2022/07/10 04:25:17;;;;;;;3.03;2.00;;;;;;;23.59;40.40;101310.84;5015459;28;20076;-83
2022/07/10 04:27:44;;;;;;;5.07;2.35;;;;;;;23.40;40.51;101280.81;5011485;28;20050;-81
2022/07/10 04:30:10;;;;;;;3.28;1.67;;;;;;;23.34;41.79;101261.81;4995010;28;20057;-81
2022/07/10 04:32:37;;;;;;;3.70;2.03;;;;;;;23.61;40.60;101298.75;4992885;28;20058;-81
2022/07/10 04:35:04;;;;;;;5.53;2.33;;;;;;;23.63;40.15;101312.13;4991910;28;20108;-81
2022/07/10 04:37:31;;;;;;;2.20;1.90;;;;;;;23.57;40.38;101291.25;4991619;28;20089;-81
2022/07/10 04:39:58;;;;;;;2.90;2.33;;;;;;;23.70;39.77;101306.72;4976746;28;20624;-81
2022/07/10 04:42:25;;;;;;;6.28;1.90;;;;;;;23.72;40.57;101310.06;4968224;28;20058;-82
2022/07/10 04:44:53;;;;;;;2.05;1.88;;;;;;;23.79;41.04;101310.94;4968723;28;20410;-81
2022/07/10 04:47:19;;;;;;;2.65;2.40;;;;;;;23.54;40.72;101257.28;4968912;28;20057;-82
2022/07/10 04:49:46;;;;;;;2.40;2.17;;;;;;;23.93;39.66;101306.34;4970616;28;20505;-80
2022/07/10 04:52:13;;;;;;;3.28;2.00;;;;;;;23.82;40.58;101286.94;4987767;28;20042;-81
2022/07/10 04:54:39;;;;;;;3.45;2.33;;;;;;;24.05;39.36;101304.69;5006677;28;20050;-82
2022/07/10 04:57:06;;;;;;;9.85;2.35;;;;;;;24.23;39.15;101312.22;5007110;28;20088;-83
2022/07/10 04:59:33;;;;;;;5.85;2.08;;;;;;;24.02;38.38;101270.69;4990351;28;20085;-82
2022/07/10 05:01:59;;;;;;;3.20;2.05;;;;;;;24.14;38.20;101270.06;5006526;28;20066;-81
2022/07/10 05:04:26;;;;;;;2.30;2.10;;;;;;;24.06;37.81;101276.53;4965231;28;20054;-81
2022/07/10 05:06:53;;;;;;;2.08;1.98;;;;;;;24.31;38.00;101301.97;4950797;28;20165;-81
2022/07/10 05:09:19;;;;;;;2.60;2.10;;;;;;;24.15;38.06;101271.72;4983083;28;20577;-82
2022/07/10 05:11:47;;;;;;;7.18;2.58;;;;;;;24.44;37.90;101293.00;4987959;28;20058;-81
2022/07/10 05:14:13;;;;;;;4.03;1.90;;;;;;;24.41;37.91;101270.84;4970189;28;20514;-81
2022/07/10 05:16:40;;;;;;;2.60;2.20;;;;;;;24.50;38.38;101285.91;4969977;28;20465;-82
2022/07/10 05:19:07;;;;;;;4.07;2.17;;;;;;;24.33;37.89;101269.19;4970300;28;20153;-82
2022/07/10 05:21:33;;;;;;;2.13;1.92;;;;;;;24.65;37.41;101320.94;4969809;28;20391;-81
2022/07/10 05:24:00;;;;;;;3.55;1.90;;;;;;;24.56;37.53;101290.47;4970959;28;20100;-83
2022/07/10 05:26:27;;;;;;;2.28;2.08;;;;;;;24.67;38.52;101297.97;4987996;28;20058;-81
2022/07/10 05:28:53;;;;;;;3.53;1.90;;;;;;;24.66;39.37;101299.03;4969985;28;20600;-82
2022/07/10 05:31:20;;;;;;;2.80;1.90;;;;;;;24.28;40.09;101242.69;4987468;28;20242;-81
2022/07/10 05:33:47;;;;;;;3.78;2.33;;;;;;;24.36;40.28;101249.78;4987670;28;20046;-82
2022/07/10 05:36:13;;;;;;;2.90;2.50;;;;;;;24.50;39.91;101265.00;4971120;28;20667;-83
2022/07/10 05:38:40;;;;;;;4.50;2.60;;;;;;;24.46;39.71;101243.94;4971425;28;20494;-81
2022/07/10 05:41:07;;;;;;;5.35;2.50;;;;;;;24.50;40.14;101248.72;4969455;28;20053;-82
2022/07/10 05:43:34;;;;;;;6.28;3.50;;;;;;;24.68;39.51;101255.34;4969226;28;20050;-82
2022/07/10 05:46:01;;;;;;;5.57;3.05;;;;;;;25.15;39.31;101318.50;4969267;28;20647;-81
2022/07/10 05:48:28;;;;;;;5.40;3.60;;;;;;;25.23;39.48;101322.88;4969205;28;20057;-81
2022/07/10 05:50:54;;;;;;;6.05;3.42;;;;;;;25.09;39.04;101300.31;4986503;28;20051;-82
2022/07/10 05:53:41;;;;;;;5.22;2.97;;;;;;;25.01;39.19;101287.81;4997352;28;20136;-81
2022/07/10 05:56:08;;;;;;;7.75;2.97;;;;;;;25.16;39.77;101312.81;4989691;28;20313;-81
2022/07/10 05:58:34;;;;;;;4.95;2.85;;;;;;;25.19;39.71;101314.31;5007711;28;20061;-81
2022/07/10 06:01:01;;;;;;;6.10;2.55;;;;;;;25.34;38.47;101314.88;5006562;28;20367;-82
2022/07/10 06:03:28;;;;;;;4.78;2.20;;;;;;;25.35;37.25;101310.28;4989824;28;20065;-82
2022/07/10 06:05:55;;;;;;;3.70;2.60;;;;;;;25.63;36.75;101309.88;4990424;28;20112;-81
2022/07/10 06:08:22;;;;;;;4.07;2.25;;;;;;;25.63;37.25;101296.28;4990372;28;20070;-80
2022/07/10 06:10:48;;;;;;;2.10;1.95;;;;;;;25.60;38.09;101302.16;4991003;28;20190;-81
2022/07/10 06:13:15;;;;;;;3.05;2.25;;;;;;;25.34;38.28;101251.50;4994356;28;20049;-80
2022/07/10 06:15:42;;;;;;;5.78;2.92;;;;;;;25.10;37.71;101204.22;5006108;28;20308;-79
2022/07/10 06:18:09;;;;;;;4.03;2.22;;;;;;;25.79;37.79;101289.50;5007223;28;20050;-81
2022/07/10 06:20:36;;;;;;;4.93;2.80;;;;;;;25.83;38.18;101296.16;4990008;28;20088;-81
2022/07/10 06:23:02;;;;;;;4.68;2.60;;;;;;;25.77;38.04;101292.41;5006436;28;20085;-80
2022/07/10 06:25:29;;;;;;;2.63;2.05;;;;;;;25.82;38.01;101288.22;5007014;28;20104;-79
2022/07/10 06:27:56;;;;;;;2.53;2.00;;;;;;;25.61;37.94;101245.91;5005685;28;20131;-80
2022/07/10 06:30:22;;;;;;;4.90;2.13;;;;;;;25.90;38.78;101293.41;4989104;28;20147;-81
2022/07/10 06:32:49;;;;;;;2.58;2.33;;;;;;;25.96;38.05;101296.06;4989659;28;20066;-81
2022/07/10 06:35:15;;;;;;;5.57;2.45;;;;;;;25.98;38.71;101285.81;4989792;28;20061;-81
2022/07/10 06:37:42;;;;;;;3.75;2.60;;;;;;;25.83;38.62;101257.22;5005663;28;20050;-81
2022/07/10 06:40:13;;;;;;;3.90;2.50;;;;;;;25.13;38.27;101133.13;4993832;28;20406;-82
2022/07/10 06:42:40;;;;;;;;;;;;;;;26.10;38.52;101291.38;4970197;28;20061;-81
2022/07/10 06:45:10;;;;;;;3.65;2.13;;;;;;;26.16;38.80;101284.19;4970763;28;19957;-81
2022/07/10 06:47:55;;;;;;;2.85;2.20;;;;;;;26.04;37.22;101242.44;4986906;28;20337;-78
2022/07/10 06:50:25;;;;;;;1.92;1.80;;;;;;;26.32;37.33;101277.34;4970421;28;20043;-80
2022/07/10 06:52:52;;;;;;;5.32;2.17;;;;;;;26.31;37.28;101270.22;4991145;28;20066;-80
2022/07/10 06:55:19;;;;;;;2.50;2.30;;;;;;;26.53;37.36;101284.25;5006508;28;20529;-79
2022/07/10 06:57:46;;;;;;;4.10;2.42;;;;;;;26.32;37.80;101250.13;5006367;28;20202;-80
2022/07/10 07:00:13;;;;;;;2.15;1.95;;;;;;;26.04;37.61;101188.88;4988901;28;20050;-80
2022/07/10 07:02:40;;;;;;;4.13;2.15;;;;;;;26.66;36.95;101275.16;4982927;28;20220;-79
2022/07/10 07:05:08;;;;;;;3.30;2.20;;;;;;;26.44;37.03;101230.09;4968128;28;20497;-81
2022/07/10 07:07:35;;;;;;;4.15;1.95;;;;;;;26.41;37.44;101214.22;4985500;28;20494;-80
2022/07/10 07:10:03;;;;;;;2.33;1.92;;;;;;;26.80;37.00;101269.31;4968357;28;20054;-81
2022/07/10 07:12:30;;;;;;;2.60;1.83;;;;;;;26.96;36.29;101265.13;4984264;28;20046;-80
2022/07/10 07:14:57;;;;;;;2.65;1.85;;;;;;;26.83;36.66;101236.16;4967879;28;20452;-80
2022/07/10 07:17:33;;;;;;;4.03;2.20;;;;;;;27.04;36.76;101258.50;4968099;28;20085;-81
2022/07/10 07:25:51;;;;;;;3.28;1.98;;;;;;;27.22;35.15;101206.72;4943602;28;20090;-80
2022/07/10 07:28:19;;;;;;;1.55;1.45;;;;;;;27.49;34.38;101220.78;4927739;29;20902;-81
2022/07/10 07:30:49;;;;;;;2.17;1.95;;;;;;;27.64;33.54;101219.50;4947116;28;20121;-81
2022/07/10 07:33:16;;;;;;;1.90;1.63;;;;;;;27.59;33.65;101186.66;4969045;28;20081;-81
2022/07/10 07:35:43;;;;;;;2.20;1.73;;;;;;;28.13;33.30;101250.16;4968911;28;20050;-80
2022/07/10 07:38:10;;;;;;;2.25;1.40;;;;;;;27.98;31.70;101208.88;4969483;28;20050;-81
2022/07/10 07:40:37;;;;;;;2.60;1.75;;;;;;;27.66;31.56;101119.19;4968148;28;20506;-82
2022/07/10 07:43:04;;;;;;;1.88;1.60;;;;;;;27.87;31.40;101143.19;4978584;28;20050;-81
2022/07/10 07:45:31;;;;;;;2.08;1.75;;;;;;;28.27;31.19;101207.09;4989024;28;20046;-83
2022/07/10 07:47:59;;;;;;;2.47;1.60;;;;;;;28.54;30.65;101218.34;4971849;28;20065;-83
2022/07/10 07:50:34;;;;;;;2.22;1.95;;;;;;;28.67;30.36;101229.00;4973438;28;20295;-82
2022/07/10 07:53:03;;;;;;;3.35;1.73;;;;;;;28.59;30.02;101204.78;4977142;28;20046;-82
2022/07/10 07:55:34;;;;;;;2.00;1.50;;;;;;;28.77;30.05;101217.47;4993875;28;20046;-83
2022/07/10 07:58:02;;;;;;;1.52;1.40;;;;;;;28.93;29.64;101237.69;5009015;28;20053;-81
2022/07/10 08:00:30;;;;;;;6.13;1.42;;;;;;;28.87;29.35;101205.91;5010398;28;20050;-82
2022/07/10 08:02:58;;;;;;;3.92;1.30;;;;;;;29.07;28.98;101239.09;4992659;28;20050;-82
2022/07/10 08:05:26;;;;;;;1.55;1.45;;;;;;;29.05;28.52;101205.69;4992898;28;20065;-82
2022/07/10 08:07:54;;;;;;;1.40;1.30;;;;;;;29.10;28.35;101185.84;4992947;28;20521;-83
2022/07/10 08:10:23;;;;;;;4.90;1.20;;;;;;;29.23;28.31;101210.16;4992058;28;20137;-82
2022/07/10 08:12:50;;;;;;;2.67;1.50;;;;;;;29.27;28.46;101194.06;4992795;28;20140;-82
2022/07/10 08:15:21;;;;;;;2.95;1.80;;;;;;;29.14;27.60;101181.56;4993044;28;20072;-83
2022/07/10 08:17:53;;;;;;;3.65;1.48;;;;;;;29.39;27.85;101192.09;5010662;28;20046;-82
2022/07/10 08:20:24;;;;;;;2.15;1.30;;;;;;;29.01;27.81;101132.63;5008444;28;20081;-81
2022/07/10 08:22:53;;;;;;;1.80;1.13;;;;;;;29.52;27.23;101188.22;4991868;28;20046;-82
2022/07/10 08:25:26;;;;;;;1.65;1.10;;;;;;;29.80;26.55;101192.78;5009682;28;20042;-82
2022/07/10 08:27:53;;;;;;;1.65;1.20;;;;;;;29.43;26.67;101138.56;4992681;28;20050;-80
2022/07/10 08:30:19;;;;;;;1.60;1.00;;;;;;;29.82;26.72;101190.63;4991937;28;20127;-80
2022/07/10 08:32:46;;;;;;;1.20;1.05;;;;;;;29.61;26.13;101135.59;4991373;28;20183;-81
2022/07/10 08:35:13;;;;;;;2.83;1.10;;;;;;;30.01;25.81;101181.06;4991401;28;20058;-80
2022/07/10 08:37:41;;;;;;;1.52;1.27;;;;;;;29.76;25.65;101125.97;4991532;28;20046;-81
2022/07/10 08:40:10;;;;;;;4.10;1.40;;;;;;;29.50;25.11;101073.59;4976968;28;20059;-82
2022/07/10 08:42:36;;;;;;;2.00;1.45;;;;;;;30.07;25.39;101160.06;4971767;28;20520;-82
2022/07/10 08:45:03;;;;;;;3.17;1.27;;;;;;;30.34;24.85;101187.59;4960259;28;20055;-82
2022/07/10 08:47:33;;;;;;;3.50;1.80;;;;;;;30.21;24.76;101155.06;4980838;28;20430;-82
2022/07/10 08:50:27;;;;;;;7.45;1.45;;;;;;;30.38;25.21;101191.44;4989515;28;20038;-83
2022/07/10 08:53:12;;;;;;;4.78;1.15;;;;;;;30.32;24.93;101162.34;4974689;28;20050;-81
2022/07/10 08:55:39;;;;;;;1.88;1.38;;;;;;;30.34;24.75;101154.72;5011820;28;20045;-80
2022/07/10 08:58:08;;;;;;;2.00;1.15;;;;;;;30.03;24.70;101080.38;4976305;28;20042;-81
2022/07/10 09:00:35;;;;;;;3.10;1.02;;;;;;;29.94;24.60;101090.09;4975355;28;20051;-81
2022/07/10 09:03:01;;;;;;;1.90;1.15;;;;;;;30.56;24.64;101190.31;4991516;28;20062;-81
2022/07/10 09:05:29;;;;;;;1.73;1.27;;;;;;;30.56;24.39;101189.47;4992893;28;20043;-81
2022/07/10 09:07:56;;;;;;;3.15;1.40;;;;;;;29.83;25.38;101060.94;4976054;28;20061;-81
2022/07/10 09:10:27;;;;;;;3.35;1.33;;;;;;;30.69;24.87;101178.13;4991808;28;20109;-80
2022/07/10 09:12:56;;;;;;;;;;;;;;;30.57;24.24;101180.19;4975878;28;20054;-82
2022/07/10 09:15:29;;;;;;;1.20;1.10;;;;;;;30.75;24.49;101182.56;4975999;28;19928;-80
2022/07/10 09:17:59;;;;;;;1.30;1.08;;;;;;;30.98;24.17;101177.91;4975757;28;20047;-84
2022/07/10 09:20:46;;;;;;;5.78;1.27;;;;;;;30.96;24.05;101160.91;4972158;28;20054;-81
2022/07/10 09:23:20;;;;;;;1.10;1.00;;;;;;;31.02;23.67;101187.25;4956396;28;20494;-81
2022/07/10 09:25:48;;;;;;;1.27;1.15;;;;;;;30.81;24.32;101140.44;4956174;28;20047;-82
2022/07/10 09:28:23;;;;;;;2.63;1.25;;;;;;;31.17;24.09;101181.94;4973660;28;20050;-81
2022/07/10 09:30:49;;;;;;;1.90;1.40;;;;;;;31.16;24.02;101158.34;4955907;28;20063;-82
2022/07/10 09:33:26;;;;;;;3.63;1.15;;;;;;;31.32;24.32;101172.19;4972227;28;20058;-82
2022/07/10 09:36:08;;;;;;;10.57;1.23;;;;;;;31.36;23.66;101174.13;4956307;28;20051;-82
2022/07/10 09:38:45;;;;;;;1.25;1.13;;;;;;;31.33;23.88;101176.59;4971773;28;20210;-82
2022/07/10 09:41:21;;;;;;;2.80;1.65;;;;;;;31.43;23.86;101162.97;4992715;28;20128;-82
2022/07/10 09:43:57;;;;;;;4.53;1.10;;;;;;;31.61;24.08;101168.06;4974447;28;20129;-83
2022/07/10 09:46:35;;;;;;;2.13;1.25;;;;;;;31.53;23.50;101146.59;4974587;28;20061;-82
2022/07/10 09:49:07;;;;;;;2.20;1.40;;;;;;;31.34;23.61;101106.91;4974328;28;20048;-78
2022/07/10 09:51:45;;;;;;;2.88;1.40;;;;;;;31.75;23.57;101164.84;4974428;28;20057;-81
2022/07/10 09:54:16;;;;;;;2.75;1.35;;;;;;;31.83;23.17;101167.13;4973609;28;20061;-82
2022/07/10 09:56:46;;;;;;;4.32;1.92;;;;;;;31.42;23.66;101079.03;4956245;28;20526;-81
2022/07/10 09:59:18;;;;;;;3.75;1.33;;;;;;;31.91;23.90;101155.63;4973562;28;20058;-82
2022/07/10 10:01:50;;;;;;;3.08;1.27;;;;;;;32.00;23.05;101145.00;4972330;28;20165;-82
2022/07/10 10:04:24;;;;;;;4.20;1.20;;;;;;;32.01;23.09;101144.72;4953933;28;20418;-82
2022/07/10 10:06:53;;;;;;;3.63;1.38;;;;;;;32.39;23.13;101134.47;4971200;28;20046;-81
2022/07/10 10:09:34;;;;;;;1.20;0.82;;;;;;;31.95;22.40;101046.97;4955367;28;20491;-81
2022/07/10 10:12:17;;;;;;;1.83;1.27;;;;;;;32.38;22.74;101119.06;4955200;28;20231;-80
2022/07/10 10:14:44;;;;;;;1.05;0.90;;;;;;;32.50;22.88;101124.34;4957199;28;20129;-82
2022/07/10 10:17:12;;;;;;;1.17;1.02;;;;;;;32.53;22.70;101119.16;4957448;28;20089;-81
2022/07/10 10:22:27;;;;;;;1.20;1.10;;;;;;;32.66;22.21;101067.50;4973142;28;20082;-82
2022/07/10 10:24:55;;;;;;;2.67;1.33;;;;;;;33.05;22.31;101113.75;4955646;28;20102;-82
2022/07/10 10:27:23;;;;;;;2.03;1.20;;;;;;;33.00;22.21;101089.78;4955277;28;20410;-81
2022/07/10 10:29:51;;;;;;;2.83;1.38;;;;;;;33.31;22.09;101112.63;4972023;28;20051;-81
2022/07/10 10:32:18;;;;;;;1.25;1.15;;;;;;;33.45;22.21;101085.38;4955354;28;20054;-83
2022/07/10 10:34:58;;;;;;;1.40;1.23;;;;;;;33.59;21.67;101091.97;4954954;28;20054;-81
2022/07/10 10:37:44;;;;;;;2.17;1.48;;;;;;;33.94;21.59;101125.19;4954404;28;20592;-80
2022/07/10 10:40:31;;;;;;;2.72;1.50;;;;;;;34.17;21.35;101115.50;4964931;28;20427;-80
2022/07/10 10:43:15;;;;;;;2.20;1.10;;;;;;;33.95;21.57;101058.00;4954928;28;20051;-80
2022/07/10 10:45:53;;;;;;;2.17;1.17;;;;;;;33.44;21.16;100931.56;4955035;28;20056;-80
2022/07/10 10:48:21;;;;;;;2.92;1.30;;;;;;;34.56;21.17;101117.50;4972080;28;20121;-82
2022/07/10 10:51:04;;;;;;;3.10;1.55;;;;;;;34.05;21.09;101049.69;4957300;28;20061;-81
2022/07/10 10:53:31;;;;;;;1.95;1.38;;;;;;;34.33;21.45;101083.19;4983712;28;20078;-82
2022/07/10 10:56:07;;;;;;;1.40;1.25;;;;;;;34.13;21.43;101018.81;5010950;28;20050;-81
2022/07/10 10:58:45;;;;;;;1.40;1.20;;;;;;;34.84;20.86;101110.44;4993517;28;20053;-82
2022/07/10 11:01:21;;;;;;;2.40;1.23;;;;;;;34.25;20.13;100968.88;4993809;28;20401;-81
2022/07/10 11:04:04;;;;;;;2.75;1.52;;;;;;;35.22;20.91;101096.91;4993550;28;20120;-81
2022/07/10 11:06:40;;;;;;;2.72;1.15;;;;;;;34.90;20.04;101056.88;4993699;28;20050;-81
2022/07/10 11:09:24;;;;;;;6.38;1.48;;;;;;;35.04;20.03;101046.81;4994617;28;20066;-81
2022/07/10 11:12:05;;;;;;;1.75;1.20;;;;;;;34.68;20.25;101007.72;5014596;28;20046;-81
2022/07/10 11:14:39;;;;;;;2.30;2.00;;;;;;;35.21;20.50;101084.22;5001233;28;20045;-81
2022/07/10 11:17:08;;;;;;;1.50;1.08;;;;;;;34.75;20.84;100974.28;5015561;28;20033;-82
2022/07/10 11:19:35;;;;;;;1.92;1.20;;;;;;;35.44;20.11;101055.84;5018402;28;20054;-82
2022/07/10 11:22:30;;;;;;;3.05;1.40;;;;;;;35.75;19.13;101063.78;5004046;28;20046;-82
2022/07/10 11:25:24;;;;;;;4.10;1.30;;;;;;;35.72;19.61;101059.69;5009759;28;20077;-82
2022/07/10 11:28:08;;;;;;;1.90;1.10;;;;;;;35.09;19.74;100936.44;5010556;28;20050;-82
2022/07/10 11:30:52;;;;;;;1.65;1.55;;;;;;;35.59;19.68;100982.25;4993017;28;20050;-82
2022/07/10 11:33:21;;;;;;;3.78;1.40;;;;;;;35.48;19.57;100968.56;4993312;28;20077;-82
2022/07/10 11:35:52;;;;;;;1.30;1.00;;;;;;;35.53;19.95;100931.78;4992580;28;20393;-82
2022/07/10 11:38:20;;;;;;;1.10;1.05;;;;;;;36.04;19.41;100971.72;5010196;28;20057;-82
2022/07/10 11:40:47;;;;;;;1.30;1.20;;;;;;;36.36;18.80;101040.06;4992100;28;20085;-82
2022/07/10 11:43:16;;;;;;;1.77;1.27;;;;;;;35.93;19.37;100935.94;4989346;28;20050;-82
2022/07/10 11:45:44;;;;;;;2.20;1.08;;;;;;;36.43;19.21;100984.41;4972850;28;20050;-82